Time;durP1;ratioP1;P1;durP2;ratioP2;P2;SDS_P1;SDS_P2;PMS_P1;PMS_P2;Temp;Humidity;BMP_temperature;BMP_pressure;BME280_temperature;BME280_humidity;BME280_pressure;Samples;Min_cycle;Max_cycle;Signal;HPM_P1;HPM_P2
2022/06/03 00:01:41;;;;;;;9.75;5.35;;;;;;;21.15;68.05;99950.23;1657565;84;21073;-61
2022/06/03 00:04:44;;;;;;;7.40;5.25;;;;;;;21.16;67.90;99952.78;1655008;85;21087;-60
2022/06/03 00:07:37;;;;;;;9.90;5.90;;;;;;;21.11;68.01;99950.97;1627475;86;21947;-60
2022/06/03 00:10:53;;;;;;;8.05;6.15;;;;;;;20.98;68.36;99962.30;1692879;83;21047;-60
2022/06/03 00:14:00;;;;;;;8.60;6.47;;;;;;;21.01;68.40;99962.06;1659672;85;21748;-61
2022/06/03 00:17:04;;;;;;;10.25;6.40;;;;;;;20.95;68.20;99965.24;1648462;85;21475;-60
2022/06/03 00:19:52;;;;;;;8.45;6.50;;;;;;;20.99;68.10;99964.86;1661386;84;21440;-61
2022/06/03 00:22:24;;;;;;;8.78;6.40;;;;;;;21.08;67.97;99961.06;1651586;85;21643;-62
2022/06/03 00:25:00;;;;;;;8.23;5.83;;;;;;;21.11;67.57;99958.98;1651222;85;21447;-61
2022/06/03 00:27:59;;;;;;;12.80;7.35;;;;;;;21.00;67.82;99962.56;1652654;85;21548;-60
2022/06/03 00:31:01;;;;;;;7.62;6.80;;;;;;;20.92;67.90;99968.99;1655248;85;21602;-61
2022/06/03 00:34:02;;;;;;;11.78;6.05;;;;;;;20.89;68.18;99973.73;1655328;85;21597;-61
2022/06/03 00:36:42;;;;;;;9.35;6.65;;;;;;;20.90;68.09;99984.80;1636688;86;21452;-61
2022/06/03 00:39:22;;;;;;;9.48;6.00;;;;;;;20.95;67.76;99988.80;1647921;85;21104;-61
2022/06/03 00:42:16;;;;;;;8.93;6.70;;;;;;;20.98;67.60;99988.56;1666718;84;21421;-61
2022/06/03 00:45:15;;;;;;;15.23;6.65;;;;;;;21.01;67.74;100002.16;1659905;85;21517;-61
2022/06/03 00:47:53;;;;;;;7.75;6.90;;;;;;;21.05;67.30;100006.28;1648575;85;21462;-61
2022/06/03 00:50:50;;;;;;;6.75;6.10;;;;;;;21.03;67.29;100007.39;1659430;85;21842;-61
2022/06/03 00:53:58;;;;;;;10.20;7.05;;;;;;;21.07;66.91;100007.49;1658822;84;21071;-60
2022/06/03 00:56:59;;;;;;;8.35;6.90;;;;;;;21.06;66.57;100006.66;1659815;85;21763;-60
2022/06/03 01:00:07;;;;;;;7.80;7.00;;;;;;;20.96;66.66;100013.23;1662436;85;21171;-60
2022/06/03 01:03:14;;;;;;;7.42;6.62;;;;;;;20.85;66.74;100022.59;1650406;85;21608;-60
2022/06/03 01:06:05;;;;;;;9.05;6.95;;;;;;;20.76;67.06;100031.34;1656512;85;21865;-61
2022/06/03 01:08:40;;;;;;;9.58;6.28;;;;;;;20.67;67.09;100030.73;1651146;85;21070;-60
2022/06/03 01:11:15;;;;;;;7.03;6.42;;;;;;;20.72;67.29;100028.52;1647682;85;21083;-61
2022/06/03 01:14:15;;;;;;;10.35;6.08;;;;;;;20.70;66.91;100027.33;1660007;85;21437;-60
2022/06/03 01:17:08;;;;;;;8.43;6.67;;;;;;;20.55;67.39;100028.48;1650394;85;21501;-61
2022/06/03 01:20:17;;;;;;;6.47;5.97;;;;;;;20.47;67.81;100032.25;1624966;87;21910;-60
2022/06/03 01:22:59;;;;;;;6.92;6.25;;;;;;;20.48;67.85;100040.15;1629115;86;21610;-60
2022/06/03 01:28:40;;;;;;;9.83;7.03;;;;;;;19.61;73.70;100040.47;1748740;79;23288;-63
2022/06/03 01:31:40;;;;;;;6.95;6.33;;;;;;;20.72;67.03;100036.08;1718007;82;21642;-61
2022/06/03 01:34:33;;;;;;;6.97;6.37;;;;;;;20.74;66.64;100044.81;1730414;82;21834;-61
2022/06/03 01:37:08;;;;;;;9.85;6.30;;;;;;;20.74;66.69;100051.98;1728066;81;21621;-61
2022/06/03 01:39:50;;;;;;;7.10;6.40;;;;;;;20.69;66.80;100052.83;1716898;81;20998;-60
2022/06/03 01:42:37;;;;;;;7.53;6.83;;;;;;;20.69;66.90;100056.84;1721656;81;21519;-60
2022/06/03 01:45:34;;;;;;;8.03;7.40;;;;;;;20.45;67.68;100063.57;1731792;81;21565;-61
2022/06/03 01:48:23;;;;;;;8.83;7.40;;;;;;;20.55;67.52;100068.55;1733602;81;21610;-64
2022/06/03 01:51:08;;;;;;;8.78;7.20;;;;;;;20.48;67.50;100059.34;1714542;81;21570;-61
2022/06/03 01:54:13;;;;;;;8.13;7.00;;;;;;;20.51;66.89;100065.30;1713517;82;21576;-61
2022/06/03 01:57:03;;;;;;;9.35;6.62;;;;;;;20.47;67.24;100072.31;1725958;81;21452;-60
2022/06/03 01:59:52;;;;;;;7.80;6.55;;;;;;;20.49;67.05;100079.22;1726137;81;21132;-60
2022/06/03 02:02:46;;;;;;;12.82;6.85;;;;;;;20.54;67.25;100075.72;1720381;82;21778;-61
2022/06/03 02:05:47;;;;;;;7.30;6.70;;;;;;;20.57;67.30;100074.16;1733495;82;21520;-61
2022/06/03 02:08:54;;;;;;;7.50;6.83;;;;;;;20.63;67.17;100069.35;1723277;82;21556;-61
2022/06/03 02:11:44;;;;;;;6.85;6.10;;;;;;;20.63;67.04;100072.02;1723302;81;21488;-61
2022/06/03 02:14:42;;;;;;;7.80;6.28;;;;;;;20.60;67.06;100075.27;1717605;81;21515;-60
2022/06/03 02:17:50;;;;;;;7.53;6.17;;;;;;;20.61;66.58;100077.48;1730947;81;21754;-60
2022/06/03 02:20:38;;;;;;;6.47;5.87;;;;;;;20.56;66.15;100076.45;1692625;82;21506;-61
2022/06/03 02:23:16;;;;;;;11.15;5.90;;;;;;;20.53;66.15;100088.73;1715269;81;21566;-61
2022/06/03 02:26:05;;;;;;;6.30;5.70;;;;;;;20.48;66.33;100094.90;1728466;81;21444;-62
2022/06/03 02:32:21;;;;;;;8.70;5.28;;;;;;;20.32;66.09;100095.20;1728769;79;22230;-62
2022/06/03 02:35:09;;;;;;;8.83;5.37;;;;;;;20.24;65.90;100101.63;1727035;81;21443;-61
2022/06/03 02:38:08;;;;;;;6.75;6.05;;;;;;;20.55;64.83;100100.14;1722909;81;21546;-61
2022/06/03 02:41:19;;;;;;;6.75;5.90;;;;;;;20.40;65.65;100101.33;1722831;81;21703;-61
2022/06/03 02:44:23;;;;;;;5.47;5.03;;;;;;;20.53;65.01;100106.09;1728523;82;21472;-61
2022/06/03 02:47:08;;;;;;;5.95;5.08;;;;;;;20.47;65.32;100109.70;1726844;81;21876;-61
2022/06/03 02:49:53;;;;;;;5.97;5.37;;;;;;;20.57;64.50;100112.05;1728180;81;21535;-60
2022/06/03 02:52:55;;;;;;;6.65;5.35;;;;;;;20.77;64.30;100110.02;1693059;81;21464;-61
2022/06/03 02:56:01;;;;;;;7.87;5.10;;;;;;;20.68;64.00;100118.78;1724770;81;21541;-60
2022/06/03 02:59:00;;;;;;;5.80;5.37;;;;;;;20.50;64.65;100121.00;1721570;81;22057;-60
2022/06/03 03:01:55;;;;;;;6.97;5.03;;;;;;;20.56;63.39;100125.86;1726548;80;21821;-61
2022/06/03 03:05:02;;;;;;;7.08;5.20;;;;;;;20.60;64.05;100126.52;1728425;81;21522;-62
2022/06/03 03:07:52;;;;;;;5.72;5.20;;;;;;;20.58;64.02;100129.76;1712973;81;21462;-60
2022/06/03 03:10:49;;;;;;;11.38;5.17;;;;;;;20.59;63.68;100139.49;1725818;81;21486;-61
2022/06/03 03:13:27;;;;;;;5.55;4.95;;;;;;;20.57;63.96;100144.95;1680268;81;21531;-60
2022/06/03 03:16:10;;;;;;;5.05;4.60;;;;;;;20.43;63.65;100146.47;1728514;81;21862;-62
2022/06/03 03:18:59;;;;;;;5.83;5.17;;;;;;;20.47;63.35;100161.29;1718214;81;21447;-61
2022/06/03 03:22:18;;;;;;;6.17;5.35;;;;;;;20.39;63.85;100157.02;1692029;83;21463;-60
2022/06/03 03:25:30;;;;;;;6.97;5.50;;;;;;;20.23;63.68;100164.02;1686631;82;21470;-60
2022/06/03 03:28:40;;;;;;;6.87;4.62;;;;;;;20.45;62.34;100169.91;1682970;82;21475;-60
2022/06/03 03:31:41;;;;;;;5.37;4.78;;;;;;;20.25;63.66;100175.43;1671747;84;22957;-60
2022/06/03 03:34:28;;;;;;;8.53;4.25;;;;;;;20.20;63.70;100178.92;1683300;83;21512;-61
2022/06/03 03:37:53;;;;;;;4.55;3.67;;;;;;;20.18;63.72;100179.02;1670041;84;21033;-61
2022/06/03 03:41:18;;;;;;;5.10;4.50;;;;;;;20.18;63.74;100183.03;1674427;84;21495;-60
2022/06/03 03:44:06;;;;;;;4.80;4.30;;;;;;;20.06;63.44;100178.62;1680921;84;21170;-61
2022/06/03 03:47:03;;;;;;;4.60;4.15;;;;;;;20.05;63.14;100178.73;1663316;84;22055;-61
2022/06/03 03:50:02;;;;;;;4.53;3.58;;;;;;;19.96;63.34;100182.91;1676349;84;21522;-61
2022/06/03 03:53:02;;;;;;;5.33;3.40;;;;;;;19.88;63.73;100187.97;1632542;82;21510;-60
2022/06/03 03:56:23;;;;;;;4.17;3.87;;;;;;;19.92;63.49;100197.45;1676818;82;21455;-61
2022/06/03 03:59:23;;;;;;;4.87;3.85;;;;;;;19.82;62.75;100196.78;1681494;84;21082;-61
2022/06/03 04:02:05;;;;;;;3.47;3.22;;;;;;;19.67;62.81;100203.69;1676708;84;22161;-62
2022/06/03 04:05:00;;;;;;;3.65;3.40;;;;;;;19.69;62.74;100209.77;1678190;84;21608;-61
2022/06/03 04:08:20;;;;;;;5.95;3.35;;;;;;;19.69;62.85;100209.28;1677650;82;21733;-61
2022/06/03 04:11:10;;;;;;;3.95;3.65;;;;;;;19.87;62.85;100211.60;1629353;87;21585;-61
2022/06/03 04:13:49;;;;;;;3.52;3.22;;;;;;;19.96;62.43;100210.44;1624242;87;21505;-61
2022/06/03 04:17:04;;;;;;;5.70;3.40;;;;;;;20.02;62.76;100201.14;1669821;82;21918;-61
2022/06/03 04:19:49;;;;;;;6.62;3.20;;;;;;;20.13;63.07;100205.69;1669036;84;20986;-61
2022/06/03 04:22:29;;;;;;;5.47;3.12;;;;;;;20.17;62.60;100204.03;1688664;84;21613;-61
2022/06/03 04:25:23;;;;;;;6.22;3.70;;;;;;;20.21;62.26;100204.62;1663564;84;21674;-62
2022/06/03 04:28:04;;;;;;;4.47;4.03;;;;;;;20.13;61.82;100199.86;1622388;84;21558;-61
2022/06/03 04:30:59;;;;;;;3.70;3.40;;;;;;;19.94;61.05;100198.19;1641298;84;21553;-61
2022/06/03 04:33:51;;;;;;;5.12;2.98;;;;;;;19.93;61.72;100214.69;1703212;81;20981;-62
2022/06/03 04:36:57;;;;;;;3.98;2.95;;;;;;;19.97;61.54;100226.00;1708858;81;21628;-61
2022/06/03 04:39:35;;;;;;;5.33;2.87;;;;;;;20.01;61.70;100228.31;1698080;81;21466;-61
2022/06/03 04:42:20;;;;;;;;;;;;;;;20.16;61.52;100234.35;1708067;81;21552;-62
2022/06/03 04:45:14;;;;;;;6.33;3.47;;;;;;;20.13;60.46;100234.56;1700326;82;21920;-63
2022/06/03 04:48:09;;;;;;;4.33;2.35;;;;;;;20.08;60.56;100233.20;1712780;81;21518;-62
2022/06/03 04:51:10;;;;;;;3.87;2.70;;;;;;;19.95;61.13;100222.10;1700360;82;21561;-62
2022/06/03 04:54:27;;;;;;;2.83;2.67;;;;;;;20.06;60.75;100241.34;1702778;81;21131;-61
2022/06/03 04:57:19;;;;;;;3.40;2.98;;;;;;;20.16;60.84;100246.36;1712293;81;21566;-61
2022/06/03 05:00:25;;;;;;;4.33;2.85;;;;;;;20.16;60.69;100242.85;1701564;81;21758;-60
2022/06/03 05:03:23;;;;;;;3.15;2.83;;;;;;;20.17;60.67;100246.75;1714804;81;21120;-64
2022/06/03 05:06:48;;;;;;;2.47;2.27;;;;;;;20.14;60.48;100249.63;1703152;81;21466;-61
2022/06/03 05:09:52;;;;;;;3.33;1.98;;;;;;;20.19;59.72;100254.16;1704528;81;21549;-61
2022/06/03 05:12:56;;;;;;;3.55;2.08;;;;;;;20.36;58.80;100256.05;1716922;81;21675;-61
2022/06/03 05:15:51;;;;;;;2.00;1.80;;;;;;;20.12;58.71;100252.90;1704530;81;21924;-60
2022/06/03 05:18:23;;;;;;;2.75;2.15;;;;;;;20.05;57.62;100254.30;1677833;82;21549;-60
2022/06/03 05:21:27;;;;;;;5.97;2.35;;;;;;;19.92;58.50;100261.50;1702570;81;21517;-60
2022/06/03 05:24:14;;;;;;;2.83;2.20;;;;;;;20.09;58.79;100268.28;1706391;81;21557;-60
2022/06/03 05:26:47;;;;;;;3.27;2.30;;;;;;;20.28;58.73;100273.97;1713237;81;21470;-60
2022/06/03 05:30:08;;;;;;;2.67;2.05;;;;;;;20.43;58.48;100294.69;1718396;82;21555;-60
2022/06/03 05:33:03;;;;;;;3.45;2.20;;;;;;;20.55;58.54;100295.59;1721701;82;21482;-60
2022/06/03 05:36:14;;;;;;;2.25;2.10;;;;;;;20.63;57.22;100297.76;1731794;82;21451;-60
2022/06/03 05:39:24;;;;;;;2.17;2.00;;;;;;;20.64;57.14;100306.13;1720850;82;21515;-61
2022/06/03 05:42:24;;;;;;;4.00;2.20;;;;;;;20.68;57.28;100305.80;1727818;80;21467;-55
2022/06/03 05:45:35;;;;;;;1.87;1.77;;;;;;;20.88;56.37;100304.78;1730502;82;22136;-56
2022/06/03 05:48:28;;;;;;;3.50;2.08;;;;;;;20.94;55.27;100309.16;1725717;82;20973;-55
2022/06/03 05:51:22;;;;;;;4.85;2.27;;;;;;;20.94;54.94;100315.00;1731236;81;21088;-59
2022/06/03 05:54:08;;;;;;;2.05;1.67;;;;;;;20.86;54.30;100314.23;1730443;82;21463;-55
2022/06/03 05:57:00;;;;;;;2.37;1.80;;;;;;;20.86;53.69;100312.91;1738778;81;21543;-55
2022/06/03 05:59:45;;;;;;;2.85;1.80;;;;;;;20.84;54.56;100312.66;1722935;82;22257;-56
2022/06/03 06:02:47;;;;;;;2.00;1.62;;;;;;;21.00;53.75;100310.52;1726005;81;21597;-57
2022/06/03 06:05:37;;;;;;;2.10;1.87;;;;;;;21.06;53.66;100317.22;1724968;81;21567;-56
2022/06/03 06:08:42;;;;;;;3.40;2.15;;;;;;;21.06;52.66;100314.54;1720965;81;21459;-55
2022/06/03 06:11:23;;;;;;;3.15;2.00;;;;;;;21.16;52.18;100315.56;1728435;82;21595;-55
2022/06/03 06:14:13;;;;;;;2.50;1.80;;;;;;;21.13;52.61;100311.77;1721349;81;21798;-56
2022/06/03 06:16:43;;;;;;;2.58;1.98;;;;;;;21.21;52.57;100317.41;1719367;82;21534;-56
2022/06/03 06:19:37;;;;;;;6.83;1.72;;;;;;;21.24;53.16;100317.64;1711261;82;21023;-56
2022/06/03 06:22:30;;;;;;;3.60;1.82;;;;;;;21.41;52.93;100318.52;1731471;82;21471;-55
2022/06/03 06:25:13;;;;;;;2.77;1.80;;;;;;;21.64;52.11;100316.75;1716440;80;21077;-56
2022/06/03 06:28:01;;;;;;;2.87;2.00;;;;;;;21.55;51.15;100313.48;1690437;82;21951;-58
2022/06/03 06:30:56;;;;;;;2.27;1.90;;;;;;;21.64;51.26;100310.56;1708692;80;21093;-56
2022/06/03 06:33:49;;;;;;;2.98;1.92;;;;;;;21.70;51.28;100312.74;1666916;81;21654;-59
2022/06/03 06:36:56;;;;;;;2.12;1.80;;;;;;;21.79;51.45;100310.68;1703324;80;21611;-58
2022/06/03 06:39:59;;;;;;;1.72;1.62;;;;;;;21.87;50.27;100310.07;1655348;83;21665;-62
2022/06/03 06:42:40;;;;;;;1.70;1.60;;;;;;;21.95;48.82;100314.34;1706126;80;21929;-58
2022/06/03 06:45:29;;;;;;;4.10;1.75;;;;;;;21.97;48.86;100313.73;1696928;81;21523;-58
2022/06/03 06:48:06;;;;;;;2.15;1.95;;;;;;;22.12;48.53;100320.53;1703894;81;21577;-59
2022/06/03 06:50:42;;;;;;;4.40;1.90;;;;;;;22.21;48.42;100313.59;1709138;82;21626;-59
2022/06/03 06:53:37;;;;;;;4.78;1.75;;;;;;;22.30;47.96;100307.52;1722089;82;21521;-59
2022/06/03 06:56:24;;;;;;;3.72;1.57;;;;;;;22.33;47.37;100311.77;1705080;80;21872;-60
2022/06/03 06:58:58;;;;;;;3.87;1.72;;;;;;;22.46;48.46;100313.80;1707567;82;21431;-57
2022/06/03 07:01:36;;;;;;;3.42;1.80;;;;;;;22.52;48.20;100328.52;1715759;82;21543;-57
2022/06/03 07:04:12;;;;;;;2.00;1.50;;;;;;;22.62;47.95;100318.77;1709302;81;21691;-60
2022/06/03 07:06:48;;;;;;;3.60;1.80;;;;;;;22.66;48.11;100320.20;1716999;80;21503;-57
2022/06/03 07:09:35;;;;;;;3.25;1.67;;;;;;;22.68;47.63;100323.61;1705899;82;21912;-56
2022/06/03 07:12:16;;;;;;;2.60;1.90;;;;;;;22.77;46.96;100322.47;1711523;82;21550;-57
2022/06/03 07:15:07;;;;;;;3.52;1.60;;;;;;;22.72;46.00;100326.89;1714723;81;21879;-57
2022/06/03 07:21:17;;;;;;;2.62;1.95;;;;;;;22.92;45.96;100324.73;1717130;81;21448;-57
2022/06/03 07:23:54;;;;;;;4.80;1.40;;;;;;;23.04;46.42;100323.38;1716340;81;21523;-57
2022/06/03 07:26:46;;;;;;;3.12;1.57;;;;;;;23.14;44.78;100321.61;1708298;82;21519;-57
2022/06/03 07:29:30;;;;;;;5.85;1.80;;;;;;;23.25;44.27;100322.04;1726419;80;20971;-57
2022/06/03 07:32:07;;;;;;;5.30;1.77;;;;;;;23.24;44.32;100323.01;1727660;80;21498;-58
2022/06/03 07:34:52;;;;;;;2.08;1.60;;;;;;;23.35;44.56;100322.09;1723499;80;21522;-59
2022/06/03 07:37:49;;;;;;;3.12;1.40;;;;;;;23.49;44.88;100319.09;1733176;80;21927;-58
2022/06/03 07:40:45;;;;;;;4.33;1.50;;;;;;;23.65;43.29;100315.41;1742979;80;21521;-57
2022/06/03 07:43:44;;;;;;;2.83;1.30;;;;;;;23.79;43.19;100319.63;1732015;80;21563;-57
2022/06/03 07:46:27;;;;;;;1.72;1.62;;;;;;;23.85;44.57;100318.23;1732895;80;21601;-57
2022/06/03 07:48:53;;;;;;;1.42;1.30;;;;;;;23.93;43.64;100309.50;1737271;80;21538;-58
2022/06/03 07:51:31;;;;;;;3.62;1.30;;;;;;;24.05;43.00;100308.39;1727258;81;21841;-58
2022/06/03 07:54:22;;;;;;;1.82;1.40;;;;;;;24.09;42.79;100315.19;1730012;80;21622;-59
2022/06/03 07:56:50;;;;;;;2.67;1.57;;;;;;;24.12;43.17;100315.43;1734048;80;21467;-59
2022/06/03 07:59:19;;;;;;;2.52;1.30;;;;;;;24.19;42.53;100324.14;1684126;80;21537;-58
2022/06/03 08:02:00;;;;;;;1.65;1.35;;;;;;;24.21;42.60;100318.14;1741950;80;21505;-58
2022/06/03 08:04:32;;;;;;;3.00;1.42;;;;;;;24.25;41.92;100322.25;1733317;80;22059;-59
2022/06/03 08:12:38;;;;;;;1.07;1.07;;;;;;;24.40;41.18;100321.86;1735754;80;21487;-59
2022/06/03 08:15:19;;;;;;;1.85;1.30;;;;;;;24.54;41.96;100317.95;1737818;80;21490;-58
2022/06/03 08:17:47;;;;;;;2.47;1.35;;;;;;;24.56;41.20;100323.53;1725605;81;21685;-59
2022/06/03 08:20:18;;;;;;;1.52;1.32;;;;;;;24.66;41.05;100317.69;1736846;80;25767;-59
2022/06/03 08:22:46;;;;;;;3.42;1.20;;;;;;;24.74;40.85;100314.80;1733546;80;21535;-58
2022/06/03 08:25:18;;;;;;;1.30;1.20;;;;;;;24.78;40.70;100314.36;1736715;80;21077;-58
2022/06/03 08:27:45;;;;;;;4.87;1.20;;;;;;;24.76;40.59;100315.50;1732325;80;21104;-58
2022/06/03 08:30:15;;;;;;;1.37;1.27;;;;;;;24.75;40.17;100325.41;1728159;80;21850;-59
2022/06/03 08:32:57;;;;;;;1.90;1.12;;;;;;;24.86;40.01;100329.31;1747438;80;21573;-58
2022/06/03 08:35:28;;;;;;;1.75;1.05;;;;;;;24.86;40.01;100329.31;1734409;80;21477;-59
2022/06/03 08:37:59;;;;;;;1.32;1.22;;;;;;;25.01;40.23;100329.70;1734639;80;21474;-60
2022/06/03 08:41:25;;;;;;;1.75;1.37;;;;;;;25.21;39.44;100323.82;1736663;80;21704;-62
2022/06/03 08:44:29;;;;;;;1.13;1.00;;;;;;;25.21;39.44;100323.82;1726453;80;21845;-59
2022/06/03 08:47:02;;;;;;;5.17;1.20;;;;;;;25.21;38.57;100333.23;1735798;80;21451;-59
2022/06/03 08:49:48;;;;;;;2.33;1.12;;;;;;;25.21;38.43;100335.93;1734455;80;21435;-59
2022/06/03 08:52:15;;;;;;;1.20;1.00;;;;;;;25.23;36.99;100338.01;1725331;80;21685;-59
2022/06/03 08:54:49;;;;;;;2.92;1.00;;;;;;;25.13;36.86;100334.46;1711582;81;21554;-58
2022/06/03 08:57:41;;;;;;;3.52;1.05;;;;;;;25.13;36.86;100334.46;1731539;80;21740;-58
2022/06/03 09:00:16;;;;;;;2.98;1.40;;;;;;;25.23;36.83;100346.59;1726765;80;21593;-58
2022/06/03 09:02:58;;;;;;;2.30;1.00;;;;;;;25.30;36.04;100350.88;1736752;81;21168;-59
2022/06/03 09:05:48;;;;;;;1.50;1.30;;;;;;;25.66;36.22;100351.12;1728848;81;21618;-58
2022/06/03 09:08:41;;;;;;;3.10;1.30;;;;;;;25.66;36.22;100351.12;1658933;83;21617;-59
2022/06/03 09:11:20;;;;;;;2.33;1.20;;;;;;;25.73;36.39;100350.39;1685215;82;21938;-59
2022/06/03 09:13:58;;;;;;;3.77;1.20;;;;;;;25.75;35.95;100351.56;1688464;82;21116;-61
2022/06/03 09:16:28;;;;;;;4.60;1.02;;;;;;;25.82;36.95;100352.67;1727140;81;21543;-61
2022/06/03 09:18:59;;;;;;;1.03;1.00;;;;;;;25.99;36.88;100361.38;1737306;80;21486;-60
2022/06/03 09:21:31;;;;;;;1.55;1.10;;;;;;;26.03;36.81;100351.12;1728044;81;21304;-57
2022/06/03 09:24:12;;;;;;;2.15;1.50;;;;;;;26.03;36.81;100351.12;1708387;81;21875;-57
2022/06/03 09:26:48;;;;;;;1.10;1.00;;;;;;;26.06;36.21;100356.73;1748596;80;21444;-57
2022/06/03 09:29:15;;;;;;;1.80;1.30;;;;;;;26.06;35.57;100360.27;1702302;82;21633;-58
2022/06/03 09:31:47;;;;;;;2.27;1.15;;;;;;;26.07;36.32;100358.42;1722263;81;21603;-54
2022/06/03 09:34:14;;;;;;;1.82;0.90;;;;;;;26.10;35.54;100358.13;1725108;81;21567;-55
2022/06/03 09:36:42;;;;;;;1.62;1.25;;;;;;;26.10;35.54;100358.13;1727792;82;21800;-58
2022/06/03 09:39:13;;;;;;;1.67;1.10;;;;;;;26.14;34.91;100361.72;1727378;81;21582;-55
2022/06/03 09:41:43;;;;;;;1.52;1.10;;;;;;;26.39;34.99;100349.41;1714729;80;21423;-55
2022/06/03 09:44:13;;;;;;;2.45;1.10;;;;;;;26.39;34.99;100349.41;1726112;81;21603;-55
2022/06/03 09:46:42;;;;;;;3.08;1.40;;;;;;;26.56;34.99;100363.05;1729070;80;21100;-56
2022/06/03 09:49:09;;;;;;;1.40;1.25;;;;;;;26.67;35.47;100353.42;1675487;82;21965;-56
2022/06/03 09:51:56;;;;;;;2.87;1.10;;;;;;;26.78;35.11;100357.24;1732336;82;21507;-57
2022/06/03 09:54:34;;;;;;;1.25;1.10;;;;;;;26.76;34.43;100353.85;1720071;80;21526;-56
2022/06/03 09:57:32;;;;;;;1.37;0.95;;;;;;;26.63;33.96;100352.55;1680199;83;21617;-56
2022/06/03 10:00:21;;;;;;;3.00;1.37;;;;;;;26.63;33.96;100352.55;1712764;82;21396;-56
2022/06/03 10:02:47;;;;;;;1.50;1.20;;;;;;;26.63;33.69;100352.55;1728808;81;21820;-59
2022/06/03 10:05:17;;;;;;;2.70;0.80;;;;;;;26.63;33.69;100352.55;1720745;81;21539;-59
2022/06/03 10:07:47;;;;;;;2.90;0.93;;;;;;;26.65;34.08;100355.42;1727900;81;21584;-59
2022/06/03 10:13:04;;;;;;;5.17;1.30;;;;;;;26.90;33.74;100362.41;1728149;80;21601;-58
2022/06/03 10:15:44;;;;;;;3.35;1.07;;;;;;;27.07;33.67;100357.53;1721970;81;21468;-59
2022/06/03 10:18:34;;;;;;;1.22;1.00;;;;;;;27.07;33.67;100357.53;1724078;81;21590;-58
2022/06/03 10:21:14;;;;;;;2.72;1.30;;;;;;;27.26;31.86;100358.39;1729903;81;21456;-59
2022/06/03 10:23:55;;;;;;;3.08;1.30;;;;;;;27.26;31.86;100358.39;1690581;81;21455;-59
2022/06/03 10:26:37;;;;;;;1.77;1.37;;;;;;;27.30;32.25;100353.86;1726233;81;21566;-59
2022/06/03 10:29:13;;;;;;;1.45;1.35;;;;;;;27.27;32.25;100349.28;1712414;81;22269;-58
2022/06/03 10:31:39;;;;;;;2.75;1.30;;;;;;;27.37;32.95;100348.19;1737533;80;21507;-58
2022/06/03 10:34:11;;;;;;;;;;;;;;;27.44;32.94;100353.78;1731474;80;21655;-58
2022/06/03 10:36:41;;;;;;;1.00;1.00;;;;;;;27.55;33.50;100349.98;1733674;80;20435;-59
2022/06/03 10:39:11;;;;;;;2.60;1.00;;;;;;;27.65;33.03;100346.69;1732964;80;21566;-61
2022/06/03 10:41:44;;;;;;;2.45;0.95;;;;;;;27.70;32.89;100345.69;1701039;82;21919;-56
2022/06/03 10:44:19;;;;;;;2.72;1.30;;;;;;;27.65;32.42;100337.23;1734876;80;21530;-57
2022/06/03 10:47:02;;;;;;;2.77;1.15;;;;;;;27.69;32.57;100330.50;1738326;80;21525;-57
2022/06/03 10:49:38;;;;;;;1.80;1.10;;;;;;;27.66;32.10;100335.37;1730951;80;21467;-56
2022/06/03 11:03:29;;;;;;;1.27;1.10;;;;;;;27.93;32.21;100332.52;1741787;80;28644;-56
2022/06/03 11:05:56;;;;;;;1.30;1.12;;;;;;;28.08;32.45;100329.19;1731478;80;21025;-57
2022/06/03 11:08:24;;;;;;;1.32;1.02;;;;;;;28.15;32.27;100328.88;1733299;80;21628;-57
2022/06/03 11:10:55;;;;;;;4.20;1.00;;;;;;;28.26;30.89;100339.91;1732043;80;21439;-57
2022/06/03 11:13:31;;;;;;;11.22;1.40;;;;;;;28.22;30.84;100338.04;1729810;80;21549;-57
2022/06/03 11:16:21;;;;;;;2.67;1.37;;;;;;;28.16;30.64;100335.97;1733201;80;21604;-57
2022/06/03 11:18:47;;;;;;;2.77;1.20;;;;;;;28.21;31.47;100336.33;1727253;80;20954;-63
2022/06/03 11:21:28;;;;;;;4.10;1.52;;;;;;;28.32;31.45;100337.38;1740335;80;22309;-58
2022/06/03 11:23:57;;;;;;;1.40;1.30;;;;;;;28.37;31.14;100341.45;1739331;80;21571;-58
2022/06/03 11:26:27;;;;;;;2.27;1.10;;;;;;;28.34;31.22;100338.06;1734046;81;21025;-58
2022/06/03 11:29:08;;;;;;;1.47;1.22;;;;;;;28.48;32.04;100333.89;1728994;80;21522;-57
2022/06/03 11:31:41;;;;;;;1.02;1.02;;;;;;;28.63;30.98;100324.66;1713105;81;20983;-57
2022/06/03 11:34:37;;;;;;;1.32;1.00;;;;;;;28.67;31.04;100324.66;1733748;80;21850;-57
2022/06/03 11:37:15;;;;;;;5.40;1.40;;;;;;;28.79;30.78;100323.83;1729143;80;20994;-57
2022/06/03 11:40:02;;;;;;;1.67;1.32;;;;;;;28.94;30.51;100317.24;1732537;80;21435;-57
2022/06/03 11:42:45;;;;;;;1.37;1.27;;;;;;;29.09;31.19;100319.61;1706704;82;21597;-57
2022/06/03 11:45:24;;;;;;;2.55;1.10;;;;;;;29.18;30.97;100321.84;1721119;81;21487;-57
2022/06/03 11:48:00;;;;;;;1.15;0.75;;;;;;;29.21;30.65;100316.07;1728195;80;21950;-57
2022/06/03 11:50:28;;;;;;;2.30;1.00;;;;;;;29.22;30.01;100312.88;1726289;80;21510;-59
2022/06/03 11:52:56;;;;;;;4.60;1.17;;;;;;;29.21;29.67;100300.34;1728286;80;21570;-56
2022/06/03 11:55:25;;;;;;;0.88;0.80;;;;;;;29.39;29.88;100304.22;1725579;80;21065;-58
2022/06/03 11:58:12;;;;;;;2.37;1.07;;;;;;;29.33;29.65;100299.47;1741361;80;20998;-61
2022/06/03 12:00:42;;;;;;;;;;;;;;;29.32;29.43;100301.34;1730108;80;21839;-58
2022/06/03 12:03:31;;;;;;;1.42;1.00;;;;;;;29.15;28.56;100288.84;1727637;80;20461;-57
2022/06/03 12:06:21;;;;;;;6.47;1.55;;;;;;;29.08;29.59;100293.57;1719676;81;21573;-58
2022/06/03 12:09:09;;;;;;;1.10;0.93;;;;;;;29.00;29.76;100294.91;1730441;80;21447;-59
2022/06/03 12:14:36;;;;;;;1.77;1.20;;;;;;;29.02;29.59;100286.62;1736336;80;22240;-59
2022/06/03 12:17:17;;;;;;;3.35;1.00;;;;;;;29.04;29.54;100281.36;1736472;80;21684;-58
2022/06/03 12:19:48;;;;;;;4.40;1.00;;;;;;;29.10;29.90;100278.00;1735455;80;21483;-59
2022/06/03 12:22:23;;;;;;;3.92;1.00;;;;;;;29.18;30.00;100284.42;1728737;80;21511;-59
2022/06/03 12:24:52;;;;;;;1.70;0.90;;;;;;;29.36;30.26;100278.83;1732839;80;21451;-59
2022/06/03 12:27:34;;;;;;;1.17;0.62;;;;;;;29.54;30.22;100287.59;1737466;80;21791;-59
2022/06/03 12:30:21;;;;;;;1.82;0.90;;;;;;;29.73;29.88;100286.38;1733278;80;21575;-59
2022/06/03 12:32:59;;;;;;;1.67;1.30;;;;;;;29.92;29.81;100283.75;1728553;80;21424;-59
2022/06/03 12:35:58;;;;;;;2.62;1.02;;;;;;;29.89;29.25;100280.03;1729455;80;21479;-59
2022/06/03 12:38:43;;;;;;;4.25;1.37;;;;;;;29.75;28.92;100271.30;1682061;81;21586;-58
2022/06/03 12:41:11;;;;;;;4.20;1.30;;;;;;;29.61;29.59;100278.24;1690514;81;21938;-59
2022/06/03 12:43:57;;;;;;;2.15;1.10;;;;;;;29.63;29.78;100275.71;1695690;82;21622;-61
2022/06/03 12:46:37;;;;;;;1.77;0.90;;;;;;;29.70;29.55;100278.55;1726440;80;21589;-58
2022/06/03 12:49:25;;;;;;;1.00;1.00;;;;;;;29.73;29.66;100271.95;1726173;81;21120;-58
2022/06/03 12:52:01;;;;;;;2.05;1.15;;;;;;;29.85;29.95;100277.34;1709643;80;22152;-62
2022/06/03 12:54:27;;;;;;;1.40;1.00;;;;;;;29.91;29.37;100267.66;1722594;80;21768;-58
2022/06/03 12:57:09;;;;;;;1.20;1.10;;;;;;;30.07;29.08;100266.23;1725407;80;21061;-58
2022/06/03 12:59:56;;;;;;;2.40;1.27;;;;;;;30.19;29.47;100272.93;1724656;80;21648;-58
2022/06/03 13:02:28;;;;;;;;;;;;;;;30.35;29.04;100270.68;1694185;81;21628;-62
2022/06/03 13:05:00;;;;;;;2.87;1.62;;;;;;;30.20;29.41;100267.86;1725400;80;20488;-58
2022/06/03 13:07:34;;;;;;;1.32;1.00;;;;;;;29.86;30.21;100266.85;1722596;80;21728;-58
2022/06/03 13:10:09;;;;;;;1.10;1.10;;;;;;;29.60;30.12;100271.98;1703580;81;21558;-58
2022/06/03 13:12:42;;;;;;;2.10;1.37;;;;;;;29.50;30.27;100268.64;1730469;81;21096;-58
2022/06/03 13:15:24;;;;;;;3.42;1.45;;;;;;;29.20;30.38;100207.45;1725644;80;21811;-57
2022/06/03 13:18:18;;;;;;;2.50;1.30;;;;;;;29.76;30.59;100263.00;1724574;80;22860;-58
2022/06/03 13:21:10;;;;;;;1.10;1.00;;;;;;;30.07;30.03;100262.17;1724960;80;21929;-57
2022/06/03 13:23:57;;;;;;;3.60;1.20;;;;;;;29.99;29.53;100227.81;1678717;83;21634;-57
2022/06/03 13:26:29;;;;;;;1.27;1.17;;;;;;;30.25;29.52;100258.68;1680806;83;21736;-58
2022/06/03 13:29:06;;;;;;;1.85;1.10;;;;;;;30.21;29.29;100256.48;1678077;83;21507;-57